^^
Grace C. Lehan Memorial Weather Station Historical Data
Daily Summary for August 20, 2021 Units:  English    Metric   Both
Daily Weekly Monthly Yearly
  High: Low: Average:
Temperature: 36.2 °F 20.7 °F 28.5 °F
Dew Point: 22 °F 15.5 °F 19.1 °F
Humidity: 91% 43.3% 69%
Wind Speed: 1.1mph 0mph 0.1mph
Wind Gust: 6mph - -
Wind- - SSE
Pressure: 30.36 in 30.15 in -
Precipitation: 0.00 in    
 
 
Tabular Data for August 20, 2021
Time Temperature Dew Point Pressure Wind Wind Speed Wind Gust Humidity Rainfall Rate (Hourly) solar
00:04 25.8 °F 20.2 °F 30.23 in NNW 0.2 mph 5 mph 79% 0.00 in 0 W/m2
00:09 25.8 °F 20.2 °F 30.23 in Calm   4 mph 79% 0.00 in 0 W/m2
00:14 25.7 °F 20.2 °F 30.23 in Calm   4 mph 79.4% 0.00 in 0 W/m2
00:19 25.6 °F 20.3 °F 30.23 in NNW 0.1 mph 4 mph 80% 0.00 in 0 W/m2
00:24 25.5 °F 20.2 °F 30.23 in Calm   4 mph 80% 0.00 in 0 W/m2
00:29 25.4 °F 20.1 °F 30.24 in NNW 0.1 mph 4 mph 80% 0.00 in 0 W/m2
00:34 25.3 °F 20 °F 30.24 in NNW 0.1 mph 4 mph 80% 0.00 in 0 W/m2
00:39 25.2 °F 19.9 °F 30.24 in Calm   2 mph 80% 0.00 in 0 W/m2
00:44 25.1 °F 19.9 °F 30.24 in NNW 0.1 mph 2 mph 80% 0.00 in 0 W/m2
00:49 25.1 °F 19.8 °F 30.24 in NNW 0.1 mph 2 mph 80% 0.00 in 0 W/m2
00:54 25 °F 19.9 °F 30.25 in Calm   2 mph 80.5% 0.00 in 0 W/m2
00:59 25 °F 20 °F 30.25 in NNW 0.1 mph 2 mph 81% 0.00 in 0 W/m2
01:04 24.9 °F 19.9 °F 30.25 in Calm   2 mph 81% 0.00 in 0 W/m2
01:09 24.9 °F 19.9 °F 30.25 in Calm   1 mph 81% 0.00 in 0 W/m2
01:14 24.8 °F 19.8 °F 30.25 in Calm   1 mph 81% 0.00 in 0 W/m2
01:19 24.7 °F 19.7 °F 30.25 in Calm   1 mph 81% 0.00 in 0 W/m2
01:24 24.7 °F 19.7 °F 30.25 in Calm   1 mph 81% 0.00 in 0 W/m2
01:29 24.6 °F 19.6 °F 30.25 in Calm   1 mph 81% 0.00 in 0 W/m2
01:34 24.5 °F 19.6 °F 30.25 in Calm   1 mph 81.2% 0.00 in 0 W/m2
01:39 24.4 °F 19.6 °F 30.25 in Calm     81.5% 0.00 in 0 W/m2
01:44 24.3 °F 19.6 °F 30.25 in Calm     82% 0.00 in 0 W/m2
01:49 24.3 °F 19.6 °F 30.25 in Calm     82% 0.00 in 0 W/m2
01:54 24.2 °F 19.5 °F 30.25 in Calm     82% 0.00 in 0 W/m2
01:59 24.1 °F 19.4 °F 30.25 in Calm     82% 0.00 in 0 W/m2
02:04 24.1 °F 19.5 °F 30.25 in Calm     82.3% 0.00 in 0 W/m2
02:09 24 °F 19.3 °F 30.25 in Calm     82% 0.00 in 0 W/m2
02:14 24 °F 19.3 °F 30.25 in Calm     82% 0.00 in 0 W/m2
02:19 23.9 °F 19.4 °F 30.25 in Calm     82.5% 0.00 in 0 W/m2
02:24 23.8 °F 19.4 °F 30.26 in Calm     83% 0.00 in 0 W/m2
02:29 23.7 °F 19.3 °F 30.26 in Calm     83% 0.00 in 0 W/m2
02:34 23.6 °F 19.2 °F 30.26 in Calm     83% 0.00 in 0 W/m2
02:39 23.4 °F 19.1 °F 30.26 in Calm     83% 0.00 in 0 W/m2
02:44 23.3 °F 18.9 °F 30.25 in Calm     83% 0.00 in 0 W/m2
02:49 23.2 °F 18.8 °F 30.26 in Calm     83% 0.00 in 0 W/m2
02:54 23.1 °F 18.9 °F 30.26 in Calm     83.6% 0.00 in 0 W/m2
02:59 23.1 °F 19 °F 30.26 in Calm     84% 0.00 in 0 W/m2
03:04 23 °F 18.9 °F 30.26 in Calm     84% 0.00 in 0 W/m2
03:09 22.9 °F 18.8 °F 30.26 in Calm     84% 0.00 in 0 W/m2
03:14 22.7 °F 18.8 °F 30.27 in Calm     84.5% 0.00 in 0 W/m2
03:19 22.6 °F 18.8 °F 30.27 in Calm     85% 0.00 in 0 W/m2
03:24 22.6 °F 18.8 °F 30.27 in Calm     85% 0.00 in 0 W/m2
03:29 22.5 °F 18.7 °F 30.27 in Calm     85% 0.00 in 0 W/m2
03:34 22.5 °F 18.8 °F 30.27 in Calm     85.4% 0.00 in 0 W/m2
04:14 22.2 °F 18.7 °F 30.28 in Calm     86% 0.00 in 0 W/m2
04:19 22.1 °F 18.6 °F 30.29 in Calm     86% 0.00 in 0 W/m2
04:24 22 °F 18.6 °F 30.29 in Calm     86.5% 0.00 in 0 W/m2
04:29 22 °F 18.7 °F 30.29 in Calm     87% 0.00 in 0 W/m2
04:34 22 °F 18.7 °F 30.29 in Calm     87% 0.00 in 0 W/m2
04:39 22 °F 18.7 °F 30.29 in Calm     87% 0.00 in 0 W/m2
04:44 21.9 °F 18.7 °F 30.29 in Calm     87% 0.00 in 0 W/m2
04:49 21.9 °F 18.6 °F 30.29 in Calm     87% 0.00 in 0 W/m2
04:54 21.8 °F 18.5 °F 30.29 in Calm     87% 0.00 in 0 W/m2
04:59 21.8 °F 18.5 °F 30.30 in Calm     87% 0.00 in 0 W/m2
05:04 21.7 °F 18.4 °F 30.30 in Calm     87% 0.00 in 0 W/m2
05:09 21.6 °F 18.3 °F 30.29 in Calm     87% 0.00 in 0 W/m2
05:14 21.5 °F 18.2 °F 30.29 in Calm     87% 0.00 in 0 W/m2
05:19 21.5 °F 18.4 °F 30.29 in Calm     87.9% 0.00 in 0 W/m2
05:24 21.4 °F 18.4 °F 30.29 in Calm     88% 0.00 in 0 W/m2
05:29 21.3 °F 18.3 °F 30.30 in Calm     88% 0.00 in 0 W/m2
05:34 21.2 °F 18.2 °F 30.30 in Calm     88% 0.00 in 0 W/m2
05:39 21.2 °F 18.2 °F 30.30 in Calm     88% 0.00 in 0 W/m2
05:44 21.2 °F 18.2 °F 30.30 in Calm   1 mph 88% 0.00 in 0 W/m2
05:49 21.2 °F 18.2 °F 30.30 in Calm   1 mph 88% 0.00 in 0 W/m2
05:54 21.2 °F 18.2 °F 30.31 in Calm   1 mph 88% 0.00 in 0 W/m2
05:59 21.2 °F 18.2 °F 30.31 in Calm   1 mph 88% 0.00 in 0 W/m2
06:04 21.3 °F 18.5 °F 30.31 in Calm   1 mph 88.9% 0.00 in 0 W/m2
06:09 21.3 °F 18.6 °F 30.31 in Calm     89% 0.00 in 0 W/m2
06:14 21.3 °F 18.6 °F 30.32 in Calm     89% 0.00 in 0 W/m2
06:19 21.4 °F 18.6 °F 30.31 in Calm     89% 0.00 in 0 W/m2
06:24 21.3 °F 18.6 °F 30.31 in Calm     88.9% 0.00 in 0 W/m2
06:29 21.3 °F 18.3 °F 30.32 in Calm     88% 0.00 in 0 W/m2
06:34 21.3 °F 18.3 °F 30.31 in Calm     88% 0.00 in 0 W/m2
06:39 21.2 °F 18.2 °F 30.31 in Calm     88% 0.00 in 0 W/m2
06:44 21.1 °F 18.1 °F 30.32 in Calm     88% 0.00 in 0 W/m2
06:49 21.1 °F 18.1 °F 30.32 in Calm     88% 0.00 in 0 W/m2
06:54 21 °F 18 °F 30.32 in Calm     88% 0.00 in 0 W/m2
06:59 20.9 °F 17.9 °F 30.33 in Calm     88% 0.00 in 0 W/m2
07:04 20.9 °F 17.9 °F 30.33 in Calm     88% 0.00 in 0 W/m2
07:09 20.8 °F 17.8 °F 30.33 in Calm     88% 0.00 in 0 W/m2
07:14 20.8 °F 17.9 °F 30.33 in Calm     88.4% 0.00 in 5 W/m2
07:19 20.7 °F 18 °F 30.33 in Calm     89% 0.00 in 7 W/m2
07:24 20.7 °F 17.9 °F 30.34 in Calm     88.6% 0.00 in 9 W/m2
07:29 20.7 °F 18 °F 30.33 in Calm     89% 0.00 in 12 W/m2
07:34 20.7 °F 18 °F 30.33 in Calm     89% 0.00 in 18 W/m2
07:39 20.7 °F 18 °F 30.33 in Calm     89% 0.00 in 30 W/m2
07:44 20.8 °F 18.1 °F 30.33 in Calm     89% 0.00 in 54 W/m2
07:49 21.1 °F 18.5 °F 30.33 in Calm     89.5% 0.00 in 62 W/m2
07:54 21.7 °F 19.2 °F 30.34 in Calm     90% 0.00 in 69 W/m2
07:59 22.4 °F 20.2 °F 30.34 in Calm     90.8% 0.00 in 93 W/m2
08:00 22.8 °F 20.6 °F 30.34 in Calm     91% 0.00 in 93 W/m2
08:09 23.8 °F 21.3 °F 30.35 in Calm     90% 0.00 in 116 W/m2
08:14 24.4 °F 21.7 °F 30.35 in Calm     89.3% 0.00 in 120 W/m2
08:19 25 °F 21.9 °F 30.36 in Calm     87.9% 0.00 in 155 W/m2
08:24 25.5 °F 22 °F 30.36 in Calm     86.3% 0.00 in 179 W/m2
08:29 26.1 °F 22 °F 30.36 in Calm     84.5% 0.00 in 179 W/m2
08:34 26.5 °F 22 °F 30.36 in NNW 0.4 mph 3 mph 82.8% 0.00 in 163 W/m2
08:39 26.8 °F 21.9 °F 30.36 in NNW 0.2 mph 3 mph 81.6% 0.00 in 192 W/m2
08:44 27.1 °F 22 °F 30.36 in Calm   3 mph 80.6% 0.00 in 195 W/m2
08:49 27.3 °F 21.7 °F 30.36 in Calm   3 mph 79.1% 0.00 in 188 W/m2
08:54 27.4 °F 21.3 °F 30.35 in Calm   3 mph 77.6% 0.00 in 197 W/m2
08:59 27.5 °F 21.1 °F 30.36 in Calm   3 mph 76.3% 0.00 in 227 W/m2
09:04 27.7 °F 21.1 °F 30.36 in Calm   3 mph 76% 0.00 in 227 W/m2
09:09 28 °F 21.4 °F 30.35 in Calm     75.7% 0.00 in 160 W/m2
09:14 28 °F 20.9 °F 30.35 in Calm   1 mph 74.5% 0.00 in 199 W/m2
09:19 27.8 °F 20.5 °F 30.36 in Calm   1 mph 73.6% 0.00 in 142 W/m2
09:24 27.8 °F 20.6 °F 30.36 in Calm   1 mph 74% 0.00 in 160 W/m2
09:29 27.9 °F 20.4 °F 30.35 in Calm   1 mph 73.1% 0.00 in 139 W/m2
09:34 27.6 °F 19.5 °F 30.35 in Calm   1 mph 71.3% 0.00 in 165 W/m2
09:39 27.3 °F 19.3 °F 30.36 in Calm     71.5% 0.00 in 169 W/m2
09:44 27.2 °F 19.7 °F 30.36 in NNW 0.1 mph 2 mph 72.8% 0.00 in 169 W/m2
09:49 27.4 °F 19.9 °F 30.36 in Calm   2 mph 73% 0.00 in 63 W/m2
09:54 27.6 °F 20 °F 30.36 in Calm   2 mph 72.6% 0.00 in 132 W/m2
09:59 27.8 °F 19.9 °F 30.36 in North 0.9 mph 3 mph 71.8% 0.00 in 135 W/m2
10:04 28 °F 19.8 °F 30.36 in Calm   3 mph 71% 0.00 in 185 W/m2
10:09 28.2 °F 20 °F 30.36 in Calm     71% 0.00 in 237 W/m2
10:14 28.5 °F 19.8 °F 30.36 in Calm     69.7% 0.00 in 322 W/m2
10:19 29 °F 20.4 °F 30.36 in North 0.1 mph 2 mph 70% 0.00 in 367 W/m2
10:24 29.8 °F 20.8 °F 30.36 in North 0.1 mph 2 mph 68.7% 0.00 in 413 W/m2
10:29 30.6 °F 20.8 °F 30.36 in Calm   2 mph 66.5% 0.00 in 418 W/m2
10:34 31.2 °F 20.8 °F 30.36 in Calm   2 mph 65% 0.00 in 427 W/m2
10:39 31.9 °F 21.5 °F 30.35 in Calm     65.1% 0.00 in 420 W/m2
10:44 32.5 °F 21.5 °F 30.35 in Calm     63.5% 0.00 in 411 W/m2
10:49 32.5 °F 21.1 °F 30.34 in Calm     62.5% 0.00 in 327 W/m2
10:54 32.7 °F 21.7 °F 30.34 in North 0.3 mph 3 mph 63.5% 0.00 in 107 W/m2
10:59 33 °F 21.8 °F 30.33 in North 0.1 mph 3 mph 63.1% 0.00 in 113 W/m2
11:04 33 °F 20.9 °F 30.33 in North 0.4 mph 3 mph 60.6% 0.00 in 229 W/m2
11:09 32.9 °F 20.6 °F 30.33 in Calm   2 mph 60% 0.00 in 169 W/m2
11:14 32.8 °F 20.7 °F 30.32 in Calm   2 mph 60.6% 0.00 in 169 W/m2
11:19 32.7 °F 20.9 °F 30.33 in Calm   2 mph 61.2% 0.00 in 176 W/m2
11:24 32.6 °F 20.4 °F 30.33 in Calm   2 mph 60.5% 0.00 in 190 W/m2
11:29 32.4 °F 20.2 °F 30.32 in Calm   2 mph 60.2% 0.00 in 192 W/m2
11:34 32.4 °F 20.2 °F 30.32 in Calm   2 mph 60.3% 0.00 in 265 W/m2
11:39 32.4 °F 20.2 °F 30.32 in Calm     60.3% 0.00 in 292 W/m2
11:44 32.5 °F 19.7 °F 30.32 in North 0.3 mph 2 mph 59% 0.00 in 225 W/m2
11:49 32.4 °F 19.5 °F 30.31 in Calm   2 mph 58.5% 0.00 in 155 W/m2
11:54 32.4 °F 19.2 °F 30.31 in Calm   2 mph 57.8% 0.00 in 98 W/m2
11:59 32.7 °F 20.2 °F 30.31 in Calm   2 mph 59.5% 0.00 in 362 W/m2
12:00 33 °F 20.7 °F 30.31 in Calm   2 mph 60% 0.00 in 362 W/m2
12:09 33.1 °F 19.4 °F 30.31 in Calm     56.6% 0.00 in 297 W/m2
12:14 33.2 °F 19.9 °F 30.30 in Calm     57.7% 0.00 in 371 W/m2
12:19 33.4 °F 19.6 °F 30.30 in Calm     56.4% 0.00 in 338 W/m2
12:24 33.4 °F 19 °F 30.29 in Calm     55.1% 0.00 in 292 W/m2
12:29 33.3 °F 18.9 °F 30.29 in Calm     55% 0.00 in 98 W/m2
12:34 33.2 °F 18.6 °F 30.29 in Calm     54.5% 0.00 in 123 W/m2
12:39 33.5 °F 18.9 °F 30.28 in Calm     54.6% 0.00 in 434 W/m2
12:44 34 °F 18.6 °F 30.28 in North 0.6 mph 2 mph 53% 0.00 in 461 W/m2
12:49 34.4 °F 19.3 °F 30.28 in Calm   2 mph 53.5% 0.00 in 334 W/m2
12:54 35.1 °F 19.4 °F 30.28 in Calm   2 mph 52.3% 0.00 in 95 W/m2
12:59 35.3 °F 18.1 °F 30.28 in Calm   2 mph 49.1% 0.00 in 104 W/m2
13:04 35.2 °F 17.9 °F 30.28 in Calm   2 mph 48.8% 0.00 in 111 W/m2
13:09 35.3 °F 18.4 °F 30.27 in Calm     49.7% 0.00 in 439 W/m2
13:14 35.4 °F 18.1 °F 30.27 in NNE 0.2 mph 3 mph 48.8% 0.00 in 334 W/m2
13:19 35.5 °F 17.4 °F 30.27 in NNE 0.7 mph 3 mph 47.3% 0.00 in 334 W/m2
13:23 35.6 °F 17.4 °F 30.27 in NNE 0.3 mph 3 mph 47.1% 0.00 in 264 W/m2
13:29 35.6 °F 17.8 °F 30.27 in Calm   3 mph 48% 0.00 in 343 W/m2
13:34 35.6 °F 17.7 °F 30.26 in NNE 1.1 mph 3 mph 47.8% 0.00 in 285 W/m2
13:39 35.4 °F 17.2 °F 30.26 in NNE 0.2 mph 3 mph 47% 0.00 in 290 W/m2
13:44 35.3 °F 17.4 °F 30.26 in NNE 0.3 mph 3 mph 47.6% 0.00 in 167 W/m2
13:49 35.3 °F 17.5 °F 30.25 in NE 0.5 mph 3 mph 47.8% 0.00 in 156 W/m2
13:54 35.2 °F 17 °F 30.25 in East 0.7 mph 3 mph 47.1% 0.00 in 186 W/m2
13:59 35 °F 17.6 °F 30.25 in ESE 0.1 mph 3 mph 48.6% 0.00 in 229 W/m2
14:04 35.3 °F 17.8 °F 30.24 in Calm   3 mph 48.6% 0.00 in 271 W/m2
14:09 35.8 °F 17.7 °F 30.25 in ESE 0.7 mph 4 mph 47.4% 0.00 in 220 W/m2
14:14 36 °F 17.6 °F 30.24 in Calm   4 mph 46.8% 0.00 in 188 W/m2
14:19 36.2 °F 17.6 °F 30.24 in ESE 0.1 mph 4 mph 46.4% 0.00 in 146 W/m2
14:24 36.2 °F 16.9 °F 30.25 in ESE 0.7 mph 4 mph 45.1% 0.00 in 171 W/m2
14:29 36 °F 16.8 °F 30.25 in ESE 0.3 mph 4 mph 45.1% 0.00 in 253 W/m2
14:34 36 °F 16.9 °F 30.24 in ESE 0.5 mph 4 mph 45.4% 0.00 in 193 W/m2
14:39 35.8 °F 16.6 °F 30.24 in ESE 0.3 mph 4 mph 45% 0.00 in 56 W/m2
14:43 35.7 °F 16.2 °F 30.24 in ESE 0.1 mph 4 mph 44.6% 0.00 in 37 W/m2
14:49 35.9 °F 16.2 °F 30.24 in SE 1.1 mph 5 mph 44% 0.00 in 35 W/m2
14:54 36 °F 16 °F 30.23 in SE 0.6 mph 5 mph 43.5% 0.00 in 32 W/m2
14:59 35.8 °F 15.7 °F 30.23 in SE 0.7 mph 5 mph 43.3% 0.00 in 28 W/m2
15:04 35.6 °F 15.7 °F 30.23 in Calm   5 mph 43.7% 0.00 in 28 W/m2
15:06 35.6 °F 15.5 °F 30.23 in Calm   2 mph 43.4% 0.00 in 26 W/m2
15:30 35.6 °F 15.9 °F 30.23 in Calm   4 mph 44% 0.00 in 25 W/m2
16:04 35.3 °F 16.4 °F 30.23 in SSE 0.3 mph 4 mph 45.5% 0.00 in 25 W/m2
16:09 35.3 °F 16.2 °F 30.22 in SSE 0.1 mph 2 mph 45.3% 0.00 in 16 W/m2
16:14 35.2 °F 16.7 °F 30.22 in SSE 0.1 mph 3 mph 46.3% 0.00 in 12 W/m2
16:19 35.1 °F 16 °F 30.22 in SSE 0.6 mph 3 mph 45.1% 0.00 in 9 W/m2
16:24 35 °F 15.8 °F 30.22 in SSE 0.1 mph 3 mph 45% 0.00 in 7 W/m2
16:29 34.9 °F 16.1 °F 30.22 in Calm   3 mph 45.8% 0.00 in 0 W/m2
16:34 34.7 °F 16.1 °F 30.22 in SSE 0.1 mph 3 mph 46% 0.00 in 0 W/m2
16:39 34.5 °F 16.4 °F 30.22 in SSE 0.1 mph 2 mph 47.1% 0.00 in 0 W/m2
16:44 34.3 °F 16.7 °F 30.22 in Calm   2 mph 48% 0.00 in 0 W/m2
16:49 34.1 °F 16.9 °F 30.22 in SSE 0.4 mph 3 mph 48.9% 0.00 in 0 W/m2
16:54 33.9 °F 17.2 °F 30.23 in SSE 0.3 mph 3 mph 49.9% 0.00 in 0 W/m2
16:59 33.6 °F 17.4 °F 30.23 in SSE 1.1 mph 4 mph 50.8% 0.00 in 0 W/m2
17:04 33.4 °F 17.4 °F 30.22 in SSE 0.6 mph 4 mph 51.4% 0.00 in 0 W/m2
17:09 33.2 °F 17.6 °F 30.22 in SSE 0.9 mph 6 mph 52.1% 0.00 in 0 W/m2
17:14 33 °F 17.8 °F 30.21 in SSE 1.1 mph 6 mph 53% 0.00 in 0 W/m2
17:19 32.9 °F 17.9 °F 30.21 in SSE 0.3 mph 6 mph 53.7% 0.00 in 0 W/m2
17:24 32.7 °F 18.1 °F 30.21 in SSE 0.2 mph 6 mph 54.5% 0.00 in 0 W/m2
17:29 32.5 °F 18.1 °F 30.21 in SSE 0.3 mph 6 mph 54.8% 0.00 in 0 W/m2
17:34 32.4 °F 17.8 °F 30.21 in Calm   6 mph 54.4% 0.00 in 0 W/m2
17:39 32.3 °F 18 °F 30.21 in SSE 0.6 mph 3 mph 55% 0.00 in 0 W/m2
17:44 32.2 °F 17.8 °F 30.20 in SSE 0.6 mph 3 mph 55% 0.00 in 0 W/m2
17:49 32.1 °F 18 °F 30.20 in SSE 0.4 mph 3 mph 55.6% 0.00 in 0 W/m2
17:54 32 °F 18.1 °F 30.20 in Calm   3 mph 56% 0.00 in 0 W/m2
17:59 31.9 °F 18.3 °F 30.20 in SSE 0.3 mph 4 mph 56.8% 0.00 in 0 W/m2
18:04 31.7 °F 18.3 °F 30.21 in SSE 0.2 mph 4 mph 57% 0.00 in 0 W/m2
18:09 31.6 °F 18.3 °F 30.21 in Calm   3 mph 57.3% 0.00 in 0 W/m2
18:14 31.5 °F 18.5 °F 30.20 in Calm   3 mph 58.1% 0.00 in 0 W/m2
18:19 31.4 °F 18.8 °F 30.20 in Calm   3 mph 59% 0.00 in 0 W/m2
18:24 31.3 °F 19 °F 30.20 in Calm   3 mph 60% 0.00 in 0 W/m2
18:29 31.2 °F 19 °F 30.20 in Calm   3 mph 60.2% 0.00 in 0 W/m2
18:34 31.1 °F 19.2 °F 30.20 in Calm   3 mph 61% 0.00 in 0 W/m2
18:39 31 °F 19.2 °F 30.20 in Calm     61% 0.00 in 0 W/m2
18:44 31 °F 19.4 °F 30.20 in Calm     61.8% 0.00 in 0 W/m2
18:49 30.9 °F 19.4 °F 30.20 in Calm   1 mph 62% 0.00 in 0 W/m2
18:54 30.9 °F 19.4 °F 30.20 in Calm   1 mph 62% 0.00 in 0 W/m2
18:59 30.8 °F 19.3 °F 30.20 in Calm   1 mph 62% 0.00 in 0 W/m2
19:04 30.7 °F 19.2 °F 30.20 in Calm   1 mph 62% 0.00 in 0 W/m2
19:09 30.6 °F 19.1 °F 30.20 in Calm     62% 0.00 in 0 W/m2
19:14 30.5 °F 19.1 °F 30.20 in Calm     62.2% 0.00 in 0 W/m2
19:19 30.5 °F 19.4 °F 30.20 in Calm   1 mph 63% 0.00 in 0 W/m2
19:24 30.4 °F 19.3 °F 30.20 in SSE 0.1 mph 2 mph 63% 0.00 in 0 W/m2
19:29 30.3 °F 19.2 °F 30.20 in Calm   2 mph 63% 0.00 in 0 W/m2
19:34 30.3 °F 19 °F 30.20 in Calm   2 mph 62.6% 0.00 in 0 W/m2
19:39 30.3 °F 18.9 °F 30.19 in SSE 0.2 mph 3 mph 62.2% 0.00 in 0 W/m2
19:44 30.3 °F 18.9 °F 30.20 in Calm   3 mph 62.1% 0.00 in 0 W/m2
19:49 30.3 °F 18.9 °F 30.20 in Calm   3 mph 62% 0.00 in 0 W/m2
19:54 30.3 °F 18.8 °F 30.20 in Calm   3 mph 62% 0.00 in 0 W/m2
19:58 30.3 °F 18.9 °F 30.19 in Calm   3 mph 62% 0.00 in 0 W/m2
20:04 30.5 °F 19.1 °F 30.19 in South 0.5 mph 1 mph 62% 0.00 in 0 W/m2
20:09 30.6 °F 19.1 °F 30.19 in Calm   1 mph 62% 0.00 in 0 W/m2
20:14 30.6 °F 19.1 °F 30.19 in Calm   1 mph 62% 0.00 in 0 W/m2
20:19 30.6 °F 18.9 °F 30.19 in South 0.6 mph 3 mph 61.3% 0.00 in 0 W/m2
20:24 30.6 °F 18.8 °F 30.19 in South 0.5 mph 3 mph 61% 0.00 in 0 W/m2
20:29 30.5 °F 18.7 °F 30.18 in South 0.7 mph 3 mph 61% 0.00 in 0 W/m2
20:34 30.4 °F 18.7 °F 30.18 in Calm   3 mph 61.4% 0.00 in 0 W/m2
20:39 30.3 °F 18.9 °F 30.18 in South 0.2 mph 4 mph 62% 0.00 in 0 W/m2
20:44 30.2 °F 18.8 °F 30.18 in South 0.3 mph 4 mph 62% 0.00 in 0 W/m2
20:49 30.1 °F 18.9 °F 30.18 in Calm   4 mph 62.5% 0.00 in 0 W/m2
20:54 30 °F 18.9 °F 30.18 in Calm   4 mph 63% 0.00 in 0 W/m2
20:59 29.9 °F 19.1 °F 30.18 in Calm   4 mph 63.7% 0.00 in 0 W/m2
21:04 29.8 °F 19.2 °F 30.18 in Calm   4 mph 64.2% 0.00 in 0 W/m2
21:09 29.8 °F 19.4 °F 30.18 in Calm   2 mph 64.8% 0.00 in 0 W/m2
21:14 29.7 °F 19.4 °F 30.18 in South 0.1 mph 2 mph 65% 0.00 in 0 W/m2
21:19 29.7 °F 19.6 °F 30.17 in Calm   2 mph 65.6% 0.00 in 0 W/m2
21:24 29.6 °F 19.7 °F 30.17 in Calm   2 mph 66% 0.00 in 0 W/m2
21:29 29.5 °F 19.7 °F 30.18 in Calm   2 mph 66.4% 0.00 in 0 W/m2
21:34 29.4 °F 19.7 °F 30.17 in Calm   2 mph 66.7% 0.00 in 0 W/m2
21:39 29.4 °F 19.8 °F 30.17 in Calm     67% 0.00 in 0 W/m2
21:44 29.3 °F 19.7 °F 30.17 in Calm     67% 0.00 in 0 W/m2
21:49 29.3 °F 19.8 °F 30.17 in Calm     67.4% 0.00 in 0 W/m2
21:54 29.2 °F 20 °F 30.17 in Calm     68% 0.00 in 0 W/m2
21:59 29.2 °F 20.1 °F 30.17 in Calm   1 mph 68.2% 0.00 in 0 W/m2
22:04 29.3 °F 20.4 °F 30.17 in South 0.3 mph 3 mph 69% 0.00 in 0 W/m2
22:09 29.4 °F 20.5 °F 30.16 in South 0.3 mph 3 mph 69% 0.00 in 0 W/m2
22:14 29.7 °F 20.8 °F 30.16 in South 0.4 mph 3 mph 69.1% 0.00 in 0 W/m2
22:19 29.9 °F 21.3 °F 30.16 in Calm   3 mph 70% 0.00 in 0 W/m2
22:24 30.1 °F 21.5 °F 30.16 in Calm   3 mph 70% 0.00 in 0 W/m2
22:29 30.2 °F 21.6 °F 30.15 in Calm   3 mph 70% 0.00 in 0 W/m2
22:34 30.2 °F 21.6 °F 30.15 in Calm   3 mph 70% 0.00 in 0 W/m2
22:39 30.2 °F 21.6 °F 30.15 in Calm     70% 0.00 in 0 W/m2
22:44 30.3 °F 21.7 °F 30.15 in Calm     70% 0.00 in 0 W/m2
22:49 30.3 °F 21.7 °F 30.15 in South 0.1 mph 2 mph 70% 0.00 in 0 W/m2
22:54 30.4 °F 21.8 °F 30.16 in South 0.2 mph 3 mph 70% 0.00 in 0 W/m2
22:59 30.5 °F 21.9 °F 30.16 in South 0.6 mph 6 mph 70% 0.00 in 0 W/m2
23:00 30.5 °F 21.9 °F 30.16 in Calm   6 mph 70% 0.00 in 0 W/m2
Hartford County Weather
Compliments of Weather Underground - 2 mb